createdAt,value
2019-02-27T00:01:23.543Z,5.20
2019-02-27T00:03:51.114Z,5.20
2019-02-27T00:06:18.496Z,5.10
2019-02-27T00:08:46.200Z,5.10
2019-02-27T00:11:13.678Z,5.10
2019-02-27T00:13:41.954Z,5.00
2019-02-27T00:16:11.128Z,5.00
2019-02-27T00:18:38.913Z,5.00
2019-02-27T00:21:10.253Z,5.00
2019-02-27T00:23:35.869Z,5.00
2019-02-27T00:26:03.611Z,5.00
2019-02-27T00:28:31.274Z,5.00
2019-02-27T00:30:58.786Z,5.00
2019-02-27T00:33:28.610Z,4.90
2019-02-27T00:35:56.079Z,4.80
2019-02-27T00:38:25.212Z,4.80
2019-02-27T00:40:52.731Z,4.80
2019-02-27T00:43:20.222Z,4.80
2019-02-27T00:45:47.881Z,4.80
2019-02-27T00:48:15.268Z,4.70
2019-02-27T00:50:43.328Z,4.70
2019-02-27T00:53:11.277Z,4.70
2019-02-27T00:55:39.553Z,4.60
2019-02-27T00:58:07.202Z,4.60
2019-02-27T01:00:38.878Z,4.60
2019-02-27T01:03:04.203Z,4.60
2019-02-27T01:05:31.705Z,4.60
2019-02-27T01:07:59.676Z,4.60
2019-02-27T01:10:27.039Z,4.60
2019-02-27T01:12:57.954Z,4.60
2019-02-27T01:15:25.614Z,4.60
2019-02-27T01:17:55.022Z,4.50
2019-02-27T01:20:22.550Z,4.50
2019-02-27T01:22:49.950Z,4.50
2019-02-27T01:25:17.560Z,4.50
2019-02-27T01:27:44.998Z,4.40
2019-02-27T01:30:12.951Z,4.40
2019-02-27T01:32:40.313Z,4.30
2019-02-27T01:35:08.541Z,4.30
2019-02-27T01:37:36.030Z,4.30
2019-02-27T01:40:04.702Z,4.30
2019-02-27T01:42:32.971Z,4.30
2019-02-27T01:45:00.848Z,4.20
2019-02-27T01:47:28.142Z,4.20
2019-02-27T01:49:55.927Z,4.20
2019-02-27T01:52:23.680Z,4.20
2019-02-27T01:54:51.017Z,4.10
2019-02-27T01:57:18.378Z,4.10
2019-02-27T01:59:50.038Z,4.10
2019-02-27T02:02:15.323Z,4.10
2019-02-27T02:04:43.250Z,4.00
2019-02-27T02:07:10.739Z,4.10
2019-02-27T02:09:39.020Z,4.10
2019-02-27T02:12:18.570Z,4.00
2019-02-27T02:14:59.593Z,4.00
2019-02-27T02:18:04.440Z,4.00
2019-02-27T02:21:13.392Z,4.00
2019-02-27T02:24:07.898Z,3.90
2019-02-27T02:26:55.525Z,3.90
2019-02-27T02:30:01.064Z,3.80
2019-02-27T02:33:05.426Z,3.80
2019-02-27T02:36:03.935Z,3.70
2019-02-27T02:39:01.234Z,3.60
2019-02-27T02:41:47.917Z,3.60
2019-02-27T02:44:36.766Z,3.50
2019-02-27T02:47:27.463Z,3.40
2019-02-27T02:50:35.456Z,3.40
2019-02-27T02:53:30.142Z,3.40
2019-02-27T02:56:14.847Z,3.40
2019-02-27T02:59:24.240Z,3.30
2019-02-27T03:01:58.113Z,3.30
2019-02-27T03:04:54.043Z,3.30
2019-02-27T03:07:55.679Z,3.30
2019-02-27T03:10:53.524Z,3.30
2019-02-27T03:13:30.847Z,3.30
2019-02-27T03:16:58.270Z,3.20
2019-02-27T03:20:00.555Z,3.30
2019-02-27T03:22:52.738Z,3.10
2019-02-27T03:26:00.553Z,3.10
2019-02-27T03:29:04.811Z,3.10
2019-02-27T03:32:00.252Z,3.00
2019-02-27T03:34:51.395Z,3.00
2019-02-27T03:37:50.258Z,3.00
2019-02-27T03:41:02.631Z,3.00
2019-02-27T03:44:20.768Z,2.90
2019-02-27T03:47:25.939Z,2.90
2019-02-27T03:50:50.904Z,2.90
2019-02-27T03:53:49.214Z,2.90
2019-02-27T03:56:51.195Z,2.80
2019-02-27T03:59:57.284Z,2.80
2019-02-27T04:02:42.994Z,2.80
2019-02-27T04:05:56.827Z,2.80
2019-02-27T04:08:43.866Z,2.80
2019-02-27T04:11:09.558Z,2.70
2019-02-27T04:13:37.575Z,2.80
2019-02-27T04:16:05.916Z,2.70
2019-02-27T04:18:32.341Z,2.70
2019-02-27T04:20:59.882Z,2.70
2019-02-27T04:23:27.482Z,2.70
2019-02-27T04:25:54.866Z,2.60
2019-02-27T04:28:22.252Z,2.60
2019-02-27T04:30:51.402Z,2.60
2019-02-27T04:33:22.897Z,2.60
2019-02-27T04:35:48.843Z,2.50
2019-02-27T04:38:16.322Z,2.50
2019-02-27T04:40:44.159Z,2.50
2019-02-27T04:43:12.797Z,2.40
2019-02-27T04:45:40.129Z,2.40
2019-02-27T04:48:07.575Z,2.40
2019-02-27T04:50:34.941Z,2.40
2019-02-27T04:53:02.218Z,2.40
2019-02-27T04:55:29.570Z,2.40
2019-02-27T04:57:57.491Z,2.40
2019-02-27T05:00:26.244Z,2.40
2019-02-27T05:02:54.372Z,2.40
2019-02-27T05:05:22.383Z,2.40
2019-02-27T05:07:54.139Z,2.40
2019-02-27T05:10:19.163Z,2.30
2019-02-27T05:12:48.175Z,2.40
2019-02-27T05:15:16.616Z,2.30
2019-02-27T05:17:44.019Z,2.20
2019-02-27T05:20:12.489Z,2.20
2019-02-27T05:22:40.038Z,2.20
2019-02-27T05:25:07.453Z,2.20
2019-02-27T05:27:34.899Z,2.10
2019-02-27T05:30:02.330Z,2.10
2019-02-27T05:32:29.956Z,2.10
2019-02-27T05:34:57.335Z,2.10
2019-02-27T05:37:24.984Z,2.10
2019-02-27T05:39:52.375Z,2.00
2019-02-27T05:42:19.740Z,2.10
2019-02-27T05:44:47.383Z,2.10
2019-02-27T05:47:15.169Z,2.00
2019-02-27T05:49:42.819Z,2.10
2019-02-27T05:52:11.845Z,2.10
2019-02-27T05:54:39.666Z,2.10
2019-02-27T05:57:07.069Z,2.10
2019-02-27T05:59:34.965Z,2.00
2019-02-27T06:02:02.287Z,2.00
2019-02-27T06:04:29.994Z,2.00
2019-02-27T06:06:57.864Z,2.00
2019-02-27T06:09:25.218Z,2.00
2019-02-27T06:11:52.566Z,1.90
2019-02-27T06:14:21.500Z,1.90
2019-02-27T06:16:49.591Z,1.90
2019-02-27T06:19:17.334Z,1.90
2019-02-27T06:21:44.994Z,1.80
2019-02-27T06:24:12.814Z,1.80
2019-02-27T06:26:40.322Z,1.80
2019-02-27T06:29:07.633Z,1.70
2019-02-27T06:31:39.318Z,1.80
2019-02-27T06:34:04.618Z,1.70
2019-02-27T06:36:31.956Z,1.70
2019-02-27T06:39:00.310Z,1.70
2019-02-27T06:41:28.361Z,1.80
2019-02-27T06:43:55.704Z,1.80
2019-02-27T06:46:23.477Z,1.80
2019-02-27T06:48:50.926Z,1.80
2019-02-27T06:51:18.537Z,1.80
2019-02-27T06:53:46.107Z,1.90
2019-02-27T06:56:13.554Z,1.90
2019-02-27T06:58:41.182Z,2.00
2019-02-27T07:01:09.663Z,2.00
2019-02-27T07:03:37.867Z,2.00
2019-02-27T07:06:05.347Z,2.10
2019-02-27T07:08:32.805Z,2.10
2019-02-27T07:11:10.307Z,2.20
2019-02-27T07:13:30.054Z,2.20
2019-02-27T07:15:57.433Z,2.20
2019-02-27T07:18:24.842Z,2.20
2019-02-27T07:20:52.441Z,2.30
2019-02-27T07:23:23.613Z,2.30
2019-02-27T07:25:49.533Z,2.40
2019-02-27T07:28:16.998Z,2.40
2019-02-27T07:30:44.448Z,2.50
2019-02-27T07:33:11.828Z,2.60
2019-02-27T07:35:39.300Z,2.70
2019-02-27T07:38:06.807Z,2.70
2019-02-27T07:40:34.217Z,2.80
2019-02-27T07:43:03.276Z,2.80
2019-02-27T07:45:31.135Z,2.90
2019-02-27T07:47:58.559Z,3.00
2019-02-27T07:50:26.062Z,3.10
2019-02-27T07:52:53.548Z,3.20
2019-02-27T07:55:22.951Z,3.30
2019-02-27T07:57:50.942Z,3.40
2019-02-27T08:00:18.468Z,3.50
2019-02-27T08:02:46.000Z,3.60
2019-02-27T08:05:13.562Z,3.70
2019-02-27T08:07:41.221Z,3.90
2019-02-27T08:10:11.682Z,4.00
2019-02-27T08:12:39.090Z,4.20
2019-02-27T08:15:08.099Z,4.40
2019-02-27T08:17:35.542Z,4.50
2019-02-27T08:20:03.110Z,4.70
2019-02-27T08:22:30.500Z,4.90
2019-02-27T08:24:58.450Z,5.00
2019-02-27T08:27:25.812Z,5.20
2019-02-27T08:29:53.252Z,5.30
2019-02-27T08:32:21.078Z,5.50
2019-02-27T08:34:48.774Z,5.60
2019-02-27T08:37:16.403Z,5.70
2019-02-27T08:39:43.889Z,6.00
2019-02-27T08:42:11.595Z,6.20
2019-02-27T08:44:39.261Z,6.30
2019-02-27T08:47:07.774Z,6.50
2019-02-27T08:49:36.462Z,6.60
2019-02-27T08:52:03.852Z,6.80
2019-02-27T08:54:33.034Z,7.00
2019-02-27T08:57:00.796Z,7.10
2019-02-27T08:59:28.163Z,7.30
2019-02-27T09:01:56.489Z,7.50
2019-02-27T09:04:24.222Z,7.60
2019-02-27T09:06:51.658Z,7.80
2019-02-27T09:09:19.085Z,8.00
2019-02-27T09:11:46.552Z,8.20
2019-02-27T09:14:13.901Z,8.30
2019-02-27T09:16:41.248Z,8.50
2019-02-27T09:19:09.446Z,8.70
2019-02-27T09:21:37.583Z,8.90
2019-02-27T09:24:04.999Z,9.10
2019-02-27T09:26:36.010Z,9.30
2019-02-27T09:29:01.904Z,9.50
2019-02-27T09:31:29.406Z,9.70
2019-02-27T09:33:56.820Z,9.80
2019-02-27T09:36:24.295Z,10.00
2019-02-27T09:38:51.651Z,10.30
2019-02-27T09:41:19.122Z,10.50
2019-02-27T09:43:46.488Z,10.70
2019-02-27T09:46:13.829Z,10.80
2019-02-27T09:48:41.446Z,11.00
2019-02-27T09:51:08.876Z,11.20
2019-02-27T09:53:36.836Z,11.40
2019-02-27T09:56:04.888Z,11.60
2019-02-27T09:58:32.583Z,11.80
2019-02-27T10:01:21.417Z,11.90
2019-02-27T10:03:48.810Z,12.10
2019-02-27T10:06:16.460Z,12.30
2019-02-27T10:08:43.835Z,12.50
2019-02-27T10:11:11.205Z,12.60
2019-02-27T10:13:38.779Z,12.80
2019-02-27T10:16:06.473Z,12.80
2019-02-27T10:18:33.890Z,13.00
2019-02-27T10:21:01.227Z,13.10
2019-02-27T10:23:31.188Z,13.20
2019-02-27T10:25:57.994Z,13.30
2019-02-27T10:28:25.449Z,13.30
2019-02-27T10:30:52.942Z,13.50
2019-02-27T10:33:20.368Z,13.70
2019-02-27T10:35:47.915Z,13.90
2019-02-27T10:38:15.608Z,14.00
2019-02-27T10:40:45.937Z,14.20
2019-02-27T10:43:12.537Z,14.40
2019-02-27T10:45:42.106Z,14.60
2019-02-27T10:48:09.467Z,14.70
2019-02-27T10:50:36.824Z,14.80
2019-02-27T10:53:04.476Z,14.90
2019-02-27T10:55:32.298Z,15.10
2019-02-27T10:57:59.931Z,15.20
2019-02-27T11:00:30.083Z,15.40
2019-02-27T11:02:57.499Z,15.50
2019-02-27T11:05:25.463Z,15.60
2019-02-27T11:07:53.745Z,15.70
2019-02-27T11:10:21.838Z,15.80
2019-02-27T11:12:49.501Z,15.90
2019-02-27T11:15:17.554Z,16.00
2019-02-27T11:17:45.398Z,16.20
2019-02-27T11:20:13.733Z,16.30
2019-02-27T11:22:42.123Z,16.40
2019-02-27T11:25:12.014Z,16.60
2019-02-27T11:27:39.754Z,16.80
2019-02-27T11:30:10.811Z,17.00
2019-02-27T11:32:38.804Z,17.10
2019-02-27T11:35:06.237Z,17.30
2019-02-27T11:37:33.630Z,17.40
2019-02-27T11:40:01.074Z,17.50
2019-02-27T11:42:29.039Z,17.70
2019-02-27T11:44:57.798Z,17.80
2019-02-27T11:47:25.459Z,17.90
2019-02-27T11:49:53.298Z,18.00
2019-02-27T11:52:20.772Z,18.10
2019-02-27T11:54:48.217Z,18.20
2019-02-27T11:57:15.661Z,18.20
2019-02-27T11:59:46.724Z,18.30
2019-02-27T12:02:12.601Z,18.40
2019-02-27T12:04:40.345Z,18.40
2019-02-27T12:07:08.024Z,18.60
2019-02-27T12:09:35.850Z,18.80
2019-02-27T12:12:04.274Z,18.80
2019-02-27T12:14:32.214Z,18.90
2019-02-27T12:16:59.534Z,18.90
2019-02-27T12:19:26.982Z,19.00
2019-02-27T12:21:54.401Z,18.90
2019-02-27T12:24:22.246Z,19.00
2019-02-27T12:26:49.993Z,19.10
2019-02-27T12:29:17.389Z,19.20
2019-02-27T12:31:47.912Z,19.30
2019-02-27T12:34:14.088Z,19.40
2019-02-27T12:36:41.489Z,19.40
2019-02-27T12:39:08.837Z,19.30
2019-02-27T12:41:36.294Z,19.30
2019-02-27T12:44:03.676Z,19.40
2019-02-27T12:46:31.862Z,19.50
2019-02-27T12:49:00.658Z,19.70
2019-02-27T12:51:28.049Z,19.90
2019-02-27T12:53:55.489Z,20.00
2019-02-27T12:56:22.898Z,20.00
2019-02-27T12:58:50.246Z,20.00
2019-02-27T13:01:17.649Z,20.00
2019-02-27T13:03:45.408Z,20.00
2019-02-27T13:06:12.721Z,20.10
2019-02-27T13:08:40.325Z,20.30
2019-02-27T13:11:08.031Z,20.30
2019-02-27T13:13:36.050Z,20.30
2019-02-27T13:16:03.683Z,20.30
2019-02-27T13:18:32.099Z,20.40
2019-02-27T13:21:00.176Z,20.50
2019-02-27T13:23:27.543Z,20.70
2019-02-27T13:25:57.459Z,20.90
2019-02-27T13:28:24.476Z,21.00
2019-02-27T13:30:51.937Z,21.20
2019-02-27T13:33:19.356Z,21.20
2019-02-27T13:35:47.205Z,21.30
2019-02-27T13:38:17.704Z,21.50
2019-02-27T13:40:43.836Z,21.50
2019-02-27T13:43:11.237Z,21.60
2019-02-27T13:45:38.702Z,21.70
2019-02-27T13:48:06.184Z,21.90
2019-02-27T13:50:33.894Z,22.00
2019-02-27T13:53:01.482Z,22.00
2019-02-27T13:55:28.941Z,22.00
2019-02-27T13:57:59.197Z,22.00
2019-02-27T14:00:28.999Z,21.90
2019-02-27T14:02:56.419Z,21.90
2019-02-27T14:05:23.952Z,22.10
2019-02-27T14:07:51.412Z,22.10
2019-02-27T14:10:20.665Z,22.20
2019-02-27T14:12:48.295Z,22.20
2019-02-27T14:15:16.328Z,22.40
2019-02-27T14:17:43.867Z,22.50
2019-02-27T14:20:13.882Z,22.40
2019-02-27T14:22:41.898Z,22.50
2019-02-27T14:25:11.333Z,22.20
2019-02-27T14:27:38.938Z,22.30
2019-02-27T14:30:08.956Z,22.40
2019-02-27T14:32:36.670Z,22.40
2019-02-27T14:35:04.066Z,22.50
2019-02-27T14:37:31.423Z,22.60
2019-02-27T14:40:03.901Z,22.70
2019-02-27T14:42:29.055Z,22.70
2019-02-27T14:44:56.664Z,22.80
2019-02-27T14:47:24.019Z,22.80
2019-02-27T14:49:51.350Z,22.90
2019-02-27T14:52:19.112Z,22.90
2019-02-27T14:54:46.577Z,23.00
2019-02-27T14:57:16.043Z,23.10
2019-02-27T14:59:43.307Z,23.10
2019-02-27T15:02:10.739Z,23.10
2019-02-27T15:04:38.091Z,23.20
2019-02-27T15:07:05.559Z,23.20
2019-02-27T15:09:35.969Z,23.10
2019-02-27T15:12:02.783Z,23.10
2019-02-27T15:14:31.083Z,23.10
2019-02-27T15:16:59.032Z,23.10
2019-02-27T15:19:26.901Z,23.10
2019-02-27T15:21:55.665Z,23.20
2019-02-27T15:24:23.246Z,23.20
2019-02-27T15:26:51.208Z,23.30
2019-02-27T15:29:18.609Z,23.30
2019-02-27T15:31:46.285Z,23.40
2019-02-27T15:34:13.681Z,23.40
2019-02-27T15:36:41.020Z,23.40
2019-02-27T15:39:08.957Z,23.50
2019-02-27T15:41:36.349Z,23.60
2019-02-27T15:44:03.743Z,23.60
2019-02-27T15:46:31.056Z,23.50
2019-02-27T15:49:00.365Z,23.50
2019-02-27T15:51:28.520Z,23.60
2019-02-27T15:53:57.831Z,23.70
2019-02-27T15:56:25.240Z,23.70
2019-02-27T15:58:52.995Z,23.80
2019-02-27T16:01:20.874Z,23.80
2019-02-27T16:03:48.391Z,23.90
2019-02-27T16:06:16.380Z,23.80
2019-02-27T16:08:47.828Z,23.70
2019-02-27T16:11:16.538Z,23.50
2019-02-27T16:13:44.618Z,23.40
2019-02-27T16:16:12.347Z,23.20
2019-02-27T16:18:39.748Z,23.10
2019-02-27T16:21:07.866Z,22.90
2019-02-27T16:23:37.560Z,22.70
2019-02-27T16:26:04.965Z,22.40
2019-02-27T16:28:32.298Z,21.90
2019-02-27T16:30:59.742Z,21.50
2019-02-27T16:33:28.546Z,21.10
2019-02-27T16:35:56.013Z,20.60
2019-02-27T16:38:23.845Z,20.30
2019-02-27T16:40:52.626Z,19.90
2019-02-27T16:43:21.074Z,19.50
2019-02-27T16:45:48.563Z,19.20
2019-02-27T16:48:16.009Z,18.90
2019-02-27T16:50:45.568Z,18.70
2019-02-27T16:53:16.233Z,18.40
2019-02-27T16:55:42.378Z,18.20
2019-02-27T16:58:09.812Z,18.00
2019-02-27T17:00:37.642Z,17.80
2019-02-27T17:03:05.797Z,17.60
2019-02-27T17:05:33.135Z,17.40
2019-02-27T17:08:02.412Z,17.20
2019-02-27T17:10:30.043Z,17.00
2019-02-27T17:12:57.610Z,16.90
2019-02-27T17:15:25.033Z,16.70
2019-02-27T17:17:53.239Z,16.40
2019-02-27T17:20:23.913Z,16.10
2019-02-27T17:22:51.573Z,15.80
2019-02-27T17:25:18.878Z,15.50
2019-02-27T17:27:49.849Z,15.20
2019-02-27T17:30:20.339Z,14.70
2019-02-27T17:32:47.962Z,14.50
2019-02-27T17:35:15.291Z,14.30
2019-02-27T17:37:43.029Z,14.10
2019-02-27T17:40:11.064Z,14.00
2019-02-27T17:42:38.838Z,13.90
2019-02-27T17:45:09.997Z,13.80
2019-02-27T17:47:36.582Z,13.60
2019-02-27T17:50:04.310Z,13.40
2019-02-27T17:52:31.894Z,13.30
2019-02-27T17:54:59.310Z,13.10
2019-02-27T17:57:26.742Z,12.90
2019-02-27T17:59:54.750Z,12.80
2019-02-27T18:02:22.211Z,12.70
2019-02-27T18:04:53.589Z,12.60
2019-02-27T18:07:19.405Z,12.40
2019-02-27T18:09:47.057Z,12.30
2019-02-27T18:12:15.114Z,12.30
2019-02-27T18:14:45.456Z,12.20
2019-02-27T18:17:11.873Z,12.00
2019-02-27T18:19:39.369Z,12.00
2019-02-27T18:22:07.007Z,11.90
2019-02-27T18:24:34.654Z,11.80
2019-02-27T18:27:02.475Z,11.70
2019-02-27T18:29:29.927Z,11.50
2019-02-27T18:31:58.734Z,11.50
2019-02-27T18:34:26.947Z,11.30
2019-02-27T18:36:54.669Z,11.30
2019-02-27T18:39:22.102Z,11.20
2019-02-27T18:41:49.621Z,11.10
2019-02-27T18:44:17.042Z,11.00
2019-02-27T18:46:44.472Z,10.90
2019-02-27T18:49:11.885Z,10.80
2019-02-27T18:51:40.092Z,10.60
2019-02-27T18:54:07.397Z,10.50
2019-02-27T18:56:36.837Z,10.50
2019-02-27T18:59:04.520Z,10.40
2019-02-27T19:01:31.925Z,10.40
2019-02-27T19:04:01.277Z,10.30
2019-02-27T19:06:28.904Z,10.20
2019-02-27T19:08:59.508Z,10.20
2019-02-27T19:11:25.777Z,10.10
2019-02-27T19:13:53.582Z,10.10
2019-02-27T19:16:21.467Z,10.10
2019-02-27T19:18:49.022Z,10.00
2019-02-27T19:21:16.869Z,10.00
2019-02-27T19:23:44.470Z,10.00
2019-02-27T19:26:13.203Z,9.90
2019-02-27T19:28:40.948Z,9.90
2019-02-27T19:31:08.738Z,9.80
2019-02-27T19:33:36.568Z,9.70
2019-02-27T19:36:04.078Z,9.50
2019-02-27T19:38:31.439Z,9.40
2019-02-27T19:41:01.322Z,9.20
2019-02-27T19:43:28.398Z,9.10
2019-02-27T19:45:55.854Z,9.00
2019-02-27T19:48:23.217Z,8.90
2019-02-27T19:50:51.206Z,9.00
2019-02-27T19:53:18.590Z,9.00
2019-02-27T19:55:46.028Z,9.10
2019-02-27T19:58:16.996Z,9.00
2019-02-27T20:00:48.140Z,9.00
2019-02-27T20:03:11.956Z,8.90
2019-02-27T20:05:39.359Z,8.70
2019-02-27T20:08:09.810Z,8.50
2019-02-27T20:10:36.196Z,8.10
2019-02-27T20:13:03.755Z,7.80
2019-02-27T20:15:31.374Z,7.60
2019-02-27T20:17:58.967Z,7.60
2019-02-27T20:20:26.447Z,7.70
2019-02-27T20:22:54.802Z,7.80
2019-02-27T20:25:23.063Z,7.80
2019-02-27T20:27:50.634Z,7.70
2019-02-27T20:30:18.434Z,7.70
2019-02-27T20:32:46.218Z,7.80
2019-02-27T20:35:13.688Z,7.70
2019-02-27T20:37:41.371Z,7.70
2019-02-27T20:40:09.507Z,7.60
2019-02-27T20:42:37.018Z,7.60
2019-02-27T20:45:08.618Z,7.60
2019-02-27T20:47:35.998Z,7.60
2019-02-27T20:50:03.856Z,7.50
2019-02-27T20:52:31.318Z,7.50
2019-02-27T20:55:00.036Z,7.50
2019-02-27T20:57:27.969Z,7.40
2019-02-27T21:00:00.653Z,7.40
2019-02-27T21:02:24.703Z,7.30
2019-02-27T21:04:52.370Z,7.20
2019-02-27T21:07:22.464Z,7.20
2019-02-27T21:09:49.135Z,7.20
2019-02-27T21:12:16.467Z,7.20
2019-02-27T21:14:44.634Z,7.20
2019-02-27T21:17:12.134Z,7.10
2019-02-27T21:19:39.585Z,7.10
2019-02-27T21:22:06.944Z,7.10
2019-02-27T21:24:37.356Z,7.10
2019-02-27T21:27:04.530Z,7.00
2019-02-27T21:29:32.301Z,7.00
2019-02-27T21:32:01.601Z,6.90
2019-02-27T21:34:29.180Z,6.90
2019-02-27T21:36:56.538Z,6.80
2019-02-27T21:39:25.254Z,6.80
2019-02-27T21:41:53.431Z,6.80
2019-02-27T21:44:25.485Z,6.70
2019-02-27T21:46:50.457Z,6.70
2019-02-27T21:49:17.805Z,6.60
2019-02-27T21:51:48.101Z,6.60
2019-02-27T21:54:15.841Z,6.60
2019-02-27T21:56:43.289Z,6.60
2019-02-27T21:59:10.639Z,6.60
2019-02-27T22:01:38.107Z,6.60
2019-02-27T22:04:05.629Z,6.60
2019-02-27T22:06:32.923Z,6.60
2019-02-27T22:09:00.262Z,6.60
2019-02-27T22:11:28.131Z,6.60
2019-02-27T22:13:55.910Z,6.60
2019-02-27T22:16:23.633Z,6.50
2019-02-27T22:18:51.067Z,6.50
2019-02-27T22:21:18.618Z,6.40
2019-02-27T22:23:46.069Z,6.40
2019-02-27T22:26:13.566Z,6.30
2019-02-27T22:28:40.978Z,6.30
2019-02-27T22:31:08.393Z,6.20
2019-02-27T22:33:35.713Z,6.20
2019-02-27T22:36:03.359Z,6.10
2019-02-27T22:38:31.102Z,6.00
2019-02-27T22:40:58.467Z,5.90
2019-02-27T22:43:25.858Z,5.90
2019-02-27T22:45:53.335Z,5.80
2019-02-27T22:48:21.073Z,5.70
2019-02-27T22:50:48.489Z,5.60
2019-02-27T22:53:15.922Z,5.60
2019-02-27T22:55:44.565Z,5.50
2019-02-27T22:58:12.145Z,5.50
2019-02-27T23:00:56.662Z,5.40
2019-02-27T23:03:24.716Z,5.40
2019-02-27T23:05:52.193Z,5.20
2019-02-27T23:08:22.979Z,5.20
2019-02-27T23:10:49.284Z,5.10
2019-02-27T23:13:17.043Z,5.00
2019-02-27T23:15:44.382Z,5.00
2019-02-27T23:18:12.149Z,4.90
2019-02-27T23:20:40.009Z,4.80
2019-02-27T23:23:07.794Z,4.80
2019-02-27T23:25:35.540Z,4.70
2019-02-27T23:28:02.965Z,4.70
2019-02-27T23:30:30.434Z,4.60
2019-02-27T23:32:59.416Z,4.60
2019-02-27T23:35:26.950Z,4.50
2019-02-27T23:37:54.676Z,4.40
2019-02-27T23:40:22.147Z,4.30
2019-02-27T23:42:49.709Z,4.30
2019-02-27T23:45:17.204Z,4.20
2019-02-27T23:47:44.628Z,4.10
2019-02-27T23:50:12.149Z,4.10
2019-02-27T23:52:39.535Z,4.00
2019-02-27T23:55:07.182Z,4.00
2019-02-27T23:57:36.825Z,4.00
